Time;durP1;ratioP1;P1;durP2;ratioP2;P2;SDS_P1;SDS_P2;PMS_P1;PMS_P2;Temp;Humidity;BMP_temperature;BMP_pressure;BME280_temperature;BME280_humidity;BME280_pressure;Samples;Min_cycle;Max_cycle;Signal;HPM_P1;HPM_P2
2024/03/17 00:01:05;;;;;;;0.57;0.50;;;10.20;99.90;;;;;;4932827;28;20051;-74
2024/03/17 00:03:31;;;;;;;0.47;0.47;;;10.30;99.90;;;;;;4949283;28;20050;-74
2024/03/17 00:06:00;;;;;;;0.40;0.40;;;10.30;99.90;;;;;;4932532;28;20066;-74
2024/03/17 00:08:26;;;;;;;0.95;0.60;;;10.20;99.90;;;;;;4964292;28;20047;-74
2024/03/17 00:10:54;;;;;;;0.68;0.52;;;10.30;1.00;;;;;;4964405;28;20387;-74
2024/03/17 00:13:21;;;;;;;0.47;0.47;;;10.30;1.00;;;;;;4965106;28;20046;-74
2024/03/17 00:15:50;;;;;;;0.43;0.43;;;10.30;1.00;;;;;;4980715;28;20627;-74
2024/03/17 00:18:16;;;;;;;0.57;0.47;;;10.30;1.00;;;;;;4964411;28;20054;-74
2024/03/17 00:20:42;;;;;;;0.40;0.40;;;10.30;2.10;;;;;;4964540;28;20359;-74
2024/03/17 00:23:09;;;;;;;1.05;0.63;;;10.30;16.90;;;;;;4963596;28;20402;-74
2024/03/17 00:25:35;;;;;;;0.50;0.50;;;10.30;96.50;;;;;;4963565;28;20132;-74
2024/03/17 00:28:05;;;;;;;0.38;0.38;;;10.30;99.90;;;;;;4973014;28;20509;-74
2024/03/17 00:30:33;;;;;;;0.90;0.50;;;10.40;99.90;;;;;;4953615;28;20061;-74
2024/03/17 00:32:59;;;;;;;0.82;0.68;;;10.40;99.90;;;;;;4978585;28;20046;-74
2024/03/17 00:35:25;;;;;;;0.40;0.40;;;10.40;99.90;;;;;;4966747;28;20465;-74
2024/03/17 00:37:51;;;;;;;0.85;0.60;;;10.40;99.90;;;;;;4963490;28;20054;-74
2024/03/17 00:40:17;;;;;;;0.70;0.70;;;10.40;99.90;;;;;;4947476;28;20097;-74
2024/03/17 00:42:44;;;;;;;0.85;0.50;;;10.40;99.90;;;;;;4947341;28;20811;-74
2024/03/17 00:45:11;;;;;;;0.57;0.57;;;10.40;99.90;;;;;;4979994;28;20046;-74
2024/03/17 00:47:37;;;;;;;0.77;0.65;;;10.40;99.90;;;;;;4981110;28;20066;-74
2024/03/17 00:50:08;;;;;;;0.57;0.57;;;10.40;99.90;;;;;;4964561;28;20124;-74
2024/03/17 00:52:34;;;;;;;0.40;0.40;;;10.40;99.90;;;;;;4964515;28;20085;-74
2024/03/17 00:55:00;;;;;;;0.60;0.60;;;10.40;1.00;;;;;;4979836;28;20057;-74
2024/03/17 00:57:26;;;;;;;0.47;0.47;;;10.40;1.00;;;;;;4979685;28;20113;-74
2024/03/17 00:59:52;;;;;;;0.77;0.65;;;10.40;1.00;;;;;;4963621;28;20087;-74
2024/03/17 01:02:18;;;;;;;0.40;0.40;;;10.30;1.00;;;;;;4948294;28;20050;-74
2024/03/17 01:04:44;;;;;;;1.00;0.80;;;10.30;87.10;;;;;;4964020;28;20536;-74
2024/03/17 01:07:11;;;;;;;0.80;0.80;;;10.30;99.90;;;;;;4962683;28;20050;-74
2024/03/17 01:09:37;;;;;;;1.02;0.65;;;10.30;99.90;;;;;;4962963;28;20058;-74
2024/03/17 01:12:03;;;;;;;0.80;0.70;;;10.30;99.90;;;;;;4964759;28;20050;-74
2024/03/17 01:14:29;;;;;;;0.45;0.45;;;10.30;99.90;;;;;;4948053;28;20058;-74
2024/03/17 01:16:56;;;;;;;0.70;0.60;;;10.40;99.90;;;;;;4959610;28;20132;-74
2024/03/17 01:19:22;;;;;;;0.50;0.50;;;10.40;1.00;;;;;;4964230;28;20142;-73
2024/03/17 01:21:48;;;;;;;0.50;0.50;;;10.40;1.00;;;;;;4979297;28;20434;-74
2024/03/17 01:24:14;;;;;;;0.73;0.73;;;10.40;1.00;;;;;;4978998;28;20050;-74
2024/03/17 01:26:40;;;;;;;2.15;0.60;;;10.40;1.00;;;;;;4964119;28;20058;-74
2024/03/17 01:29:06;;;;;;;0.60;0.60;;;10.50;1.00;;;;;;4947616;28;20816;-74
2024/03/17 01:31:32;;;;;;;0.60;0.60;;;10.50;1.20;;;;;;4979799;28;20050;-74
2024/03/17 01:33:58;;;;;;;0.80;0.70;;;10.50;28.20;;;;;;4963856;28;20090;-74
2024/03/17 01:36:24;;;;;;;1.05;0.70;;;10.60;1.00;;;;;;4962759;28;20961;-74
2024/03/17 01:38:51;;;;;;;0.68;0.60;;;10.60;1.00;;;;;;4963835;28;20141;-74
2024/03/17 01:41:17;;;;;;;0.65;0.65;;;10.60;1.00;;;;;;4979429;28;20085;-74
2024/03/17 01:43:42;;;;;;;0.65;0.60;;;10.70;99.90;;;;;;4947550;28;20054;-74
2024/03/17 01:46:15;;;;;;;1.05;0.70;;;10.70;99.90;;;;;;4953070;28;20755;-74
2024/03/17 01:48:41;;;;;;;1.90;0.70;;;10.80;1.00;;;;;;4947645;28;20058;-74
2024/03/17 01:51:07;;;;;;;0.50;0.50;;;10.80;1.00;;;;;;4962578;28;20393;-74
2024/03/17 01:53:33;;;;;;;1.00;0.73;;;10.80;1.00;;;;;;4963318;28;20042;-74
2024/03/17 01:55:59;;;;;;;0.60;0.50;;;10.80;1.00;;;;;;4980507;28;20069;-74
2024/03/17 01:58:25;;;;;;;0.60;0.60;;;10.80;1.00;;;;;;4951042;28;20058;-74
2024/03/17 02:00:51;;;;;;;0.93;0.77;;;10.90;1.00;;;;;;4967379;28;20050;-74
2024/03/17 02:03:18;;;;;;;1.38;0.77;;;10.90;1.00;;;;;;4967184;28;20055;-74
2024/03/17 02:05:45;;;;;;;0.55;0.55;;;10.80;1.00;;;;;;4951119;28;20065;-74
2024/03/17 02:08:11;;;;;;;0.95;0.73;;;10.90;99.90;;;;;;4950595;28;20061;-74
2024/03/17 02:10:37;;;;;;;1.00;0.80;;;10.90;99.90;;;;;;4967200;28;20058;-74
2024/03/17 02:13:04;;;;;;;0.73;0.70;;;10.90;99.90;;;;;;4967188;28;20065;-74
2024/03/17 02:15:30;;;;;;;0.77;0.70;;;10.90;1.00;;;;;;4966570;28;20066;-74
2024/03/17 02:17:56;;;;;;;0.90;0.82;;;11.00;1.00;;;;;;4966502;28;20050;-74
2024/03/17 02:20:55;;;;;;;0.75;0.75;;;11.00;1.00;;;;;;4950470;28;20096;-74
2024/03/17 02:23:11;;;;;;;1.40;1.00;;;11.00;1.00;;;;;;4969021;28;20050;-74
2024/03/17 02:25:37;;;;;;;1.10;1.00;;;11.00;15.10;;;;;;4966389;28;20050;-74
2024/03/17 02:28:04;;;;;;;1.00;0.90;;;11.10;48.10;;;;;;4966438;28;20062;-74
2024/03/17 02:30:30;;;;;;;1.17;1.00;;;11.10;99.90;;;;;;4969894;28;20050;-74
2024/03/17 02:32:56;;;;;;;1.20;1.00;;;11.10;99.90;;;;;;4956953;28;20082;-74
2024/03/17 02:35:23;;;;;;;1.00;0.90;;;11.10;99.90;;;;;;4980483;28;20054;-74
2024/03/17 02:37:49;;;;;;;1.60;1.00;;;11.20;99.90;;;;;;4957153;28;20512;-74
2024/03/17 02:40:16;;;;;;;1.23;1.00;;;11.20;1.00;;;;;;4954498;28;20061;-74
2024/03/17 02:42:44;;;;;;;1.35;1.02;;;11.20;1.00;;;;;;5001296;28;20049;-76
2024/03/17 02:45:12;;;;;;;1.25;0.95;;;11.30;1.00;;;;;;5005858;28;20069;-74
2024/03/17 02:47:38;;;;;;;1.83;0.95;;;11.30;1.00;;;;;;4984363;28;20053;-73
2024/03/17 02:50:04;;;;;;;1.20;1.10;;;11.30;1.50;;;;;;5005668;28;20041;-74
2024/03/17 02:52:30;;;;;;;2.88;1.25;;;11.30;86.50;;;;;;4997806;28;20054;-74
2024/03/17 02:54:56;;;;;;;1.88;1.08;;;11.30;60.60;;;;;;4968750;28;20051;-73
2024/03/17 02:57:24;;;;;;;1.33;1.15;;;11.30;99.90;;;;;;4992599;28;20057;-74
2024/03/17 02:59:51;;;;;;;1.80;0.98;;;11.30;99.90;;;;;;4973370;28;20046;-74
2024/03/17 03:02:17;;;;;;;1.40;1.13;;;11.30;99.90;;;;;;5000396;28;20049;-74
2024/03/17 03:04:43;;;;;;;1.95;1.38;;;11.30;99.90;;;;;;4980228;28;20053;-74
2024/03/17 03:07:09;;;;;;;3.03;1.30;;;11.40;1.00;;;;;;4980723;28;20054;-73
2024/03/17 03:09:35;;;;;;;1.70;1.35;;;11.40;1.00;;;;;;4959780;28;20050;-74
2024/03/17 03:12:04;;;;;;;2.75;1.88;;;11.40;1.00;;;;;;4973564;28;20054;-74
2024/03/17 03:14:30;;;;;;;2.38;1.70;;;11.40;1.00;;;;;;4985754;28;20054;-73
2024/03/17 03:16:56;;;;;;;2.10;1.85;;;11.40;86.50;;;;;;4953391;28;20535;-74
2024/03/17 03:19:22;;;;;;;1.80;1.42;;;11.40;99.90;;;;;;4969531;28;20058;-73
2024/03/17 03:21:48;;;;;;;1.85;1.65;;;11.40;99.90;;;;;;4952832;28;20058;-74
2024/03/17 03:24:14;;;;;;;1.85;1.35;;;11.40;99.90;;;;;;4984981;28;20109;-74
2024/03/17 03:26:40;;;;;;;2.05;1.50;;;11.50;99.90;;;;;;4937630;28;20097;-74
2024/03/17 03:29:06;;;;;;;3.00;1.80;;;11.50;99.90;;;;;;4937008;28;20054;-74
2024/03/17 03:31:32;;;;;;;2.13;1.60;;;11.50;99.90;;;;;;4969146;28;20047;-74
2024/03/17 03:34:01;;;;;;;1.65;1.40;;;11.50;99.90;;;;;;4969167;28;20230;-74
2024/03/17 03:36:27;;;;;;;1.88;1.40;;;11.50;99.90;;;;;;4968879;28;20157;-74
2024/03/17 03:38:53;;;;;;;2.53;1.63;;;11.50;99.90;;;;;;4968650;28;20105;-73
2024/03/17 03:41:19;;;;;;;1.95;1.45;;;11.50;1.00;;;;;;4984881;28;20089;-73
2024/03/17 03:43:47;;;;;;;1.35;1.23;;;11.60;99.90;;;;;;4952792;28;20062;-73
2024/03/17 03:46:13;;;;;;;1.77;1.42;;;11.60;99.90;;;;;;4984480;28;20608;-74
2024/03/17 03:48:39;;;;;;;2.38;1.30;;;11.50;99.90;;;;;;4951220;28;20136;-74
2024/03/17 03:51:09;;;;;;;1.35;1.20;;;11.60;99.90;;;;;;4965387;28;20112;-74
2024/03/17 03:53:35;;;;;;;2.05;1.05;;;11.60;99.90;;;;;;4995867;28;20425;-74
2024/03/17 03:56:05;;;;;;;1.52;1.35;;;11.60;99.90;;;;;;4987435;28;20049;-73
2024/03/17 03:58:35;;;;;;;1.65;1.40;;;11.60;99.90;;;;;;5004346;28;20960;-74
2024/03/17 04:01:05;;;;;;;1.58;1.38;;;11.60;90.10;;;;;;4988457;28;20065;-73
2024/03/17 04:03:35;;;;;;;1.27;0.90;;;11.70;59.50;;;;;;4988005;28;20061;-73
2024/03/17 04:06:10;;;;;;;1.52;1.00;;;11.70;1.00;;;;;;4988478;28;20061;-74
2024/03/17 04:08:39;;;;;;;1.70;1.20;;;11.70;1.00;;;;;;5004192;28;20058;-74
2024/03/17 04:11:05;;;;;;;1.48;1.02;;;11.70;1.00;;;;;;4972045;28;20065;-74
2024/03/17 04:13:33;;;;;;;1.73;1.10;;;11.70;72.60;;;;;;5003785;28;20057;-74
2024/03/17 04:15:59;;;;;;;1.45;1.25;;;11.70;99.90;;;;;;4988059;28;20080;-74
2024/03/17 04:18:26;;;;;;;1.50;0.98;;;11.70;99.90;;;;;;4987056;28;20057;-74
2024/03/17 04:20:52;;;;;;;1.35;1.25;;;11.80;99.90;;;;;;4971838;28;20058;-73
2024/03/17 04:23:20;;;;;;;1.80;1.10;;;11.80;99.90;;;;;;4951254;28;20058;-74
2024/03/17 04:25:46;;;;;;;1.65;0.90;;;11.80;94.50;;;;;;4967723;28;20058;-73
2024/03/17 04:28:11;;;;;;;1.00;0.80;;;11.70;52.50;;;;;;4952490;28;20054;-74
2024/03/17 04:30:37;;;;;;;0.98;0.80;;;11.80;89.10;;;;;;4968070;28;20061;-74
2024/03/17 04:33:06;;;;;;;0.88;0.88;;;11.80;99.90;;;;;;4964818;28;20058;-74
2024/03/17 04:35:36;;;;;;;1.10;0.90;;;11.80;99.90;;;;;;4968354;28;20101;-74
2024/03/17 04:38:02;;;;;;;1.23;1.00;;;11.80;99.90;;;;;;4966833;28;20447;-74
2024/03/17 04:40:28;;;;;;;1.20;0.88;;;11.80;99.90;;;;;;4967706;28;20446;-74
2024/03/17 04:42:54;;;;;;;0.93;0.80;;;11.80;99.90;;;;;;4967708;28;20068;-74
2024/03/17 04:45:20;;;;;;;1.83;0.90;;;11.80;99.90;;;;;;4984524;28;20058;-74
2024/03/17 04:47:47;;;;;;;1.10;1.00;;;11.80;99.90;;;;;;4968200;28;20100;-74
2024/03/17 04:50:13;;;;;;;1.65;0.90;;;11.80;99.90;;;;;;4967904;28;20057;-74
2024/03/17 04:52:39;;;;;;;0.88;0.80;;;11.80;99.90;;;;;;4934949;28;20062;-74
2024/03/17 04:55:05;;;;;;;1.13;0.82;;;11.80;99.90;;;;;;4968168;28;20109;-74
2024/03/17 04:57:31;;;;;;;0.82;0.77;;;11.80;99.90;;;;;;4983967;28;20520;-74
2024/03/17 04:59:57;;;;;;;0.85;0.80;;;11.80;99.90;;;;;;4936211;28;20070;-74
2024/03/17 05:02:23;;;;;;;0.88;0.80;;;11.70;99.90;;;;;;4983922;28;20130;-73
2024/03/17 05:04:50;;;;;;;0.65;0.50;;;11.70;99.90;;;;;;4951482;28;20057;-74
2024/03/17 05:07:16;;;;;;;1.33;0.70;;;11.80;99.90;;;;;;4983549;28;20058;-74
2024/03/17 05:09:43;;;;;;;0.60;0.60;;;11.80;84.60;;;;;;4967239;28;20157;-74
2024/03/17 05:12:10;;;;;;;0.70;0.50;;;11.80;46.60;;;;;;4967848;28;20520;-73
2024/03/17 05:14:36;;;;;;;1.52;0.80;;;11.80;26.70;;;;;;5001065;28;20050;-74
2024/03/17 05:17:02;;;;;;;0.80;0.57;;;11.70;99.90;;;;;;4987318;28;20064;-74
2024/03/17 05:19:28;;;;;;;0.70;0.60;;;11.80;64.00;;;;;;4970920;28;20062;-74
2024/03/17 05:21:53;;;;;;;0.57;0.57;;;11.80;1.00;;;;;;4970010;28;20053;-74
2024/03/17 05:24:19;;;;;;;1.20;0.77;;;11.80;1.00;;;;;;4969902;28;20046;-74
2024/03/17 05:26:45;;;;;;;1.23;0.93;;;11.80;1.00;;;;;;4987158;28;20104;-74
2024/03/17 05:29:11;;;;;;;1.08;0.55;;;11.80;99.90;;;;;;4986809;28;20049;-73
2024/03/17 05:31:42;;;;;;;1.13;0.90;;;11.80;99.90;;;;;;4990730;28;20144;-74
2024/03/17 05:34:10;;;;;;;1.75;0.93;;;11.80;99.90;;;;;;4991809;28;20058;-74
2024/03/17 05:36:36;;;;;;;1.13;0.80;;;11.80;99.90;;;;;;4990004;28;20361;-74
2024/03/17 05:39:02;;;;;;;1.58;1.00;;;11.80;99.90;;;;;;4990539;28;20058;-73
2024/03/17 05:41:29;;;;;;;1.75;0.90;;;11.80;99.90;;;;;;4990368;28;20085;-74
2024/03/17 05:43:58;;;;;;;1.02;0.93;;;11.80;99.90;;;;;;4990508;28;20066;-74
2024/03/17 05:46:25;;;;;;;1.35;0.90;;;11.80;99.90;;;;;;5006535;28;20089;-74
2024/03/17 05:48:51;;;;;;;0.68;0.60;;;11.80;99.90;;;;;;5006348;28;20111;-74
2024/03/17 05:51:17;;;;;;;0.90;0.90;;;11.80;99.90;;;;;;4973520;28;20061;-74
2024/03/17 05:53:46;;;;;;;1.25;0.90;;;11.80;99.90;;;;;;4991110;28;20058;-74
2024/03/17 05:56:12;;;;;;;2.10;1.30;;;11.80;99.90;;;;;;4974384;28;20050;-74
2024/03/17 05:58:38;;;;;;;1.20;0.73;;;11.80;99.90;;;;;;4990137;28;20069;-74
2024/03/17 06:01:06;;;;;;;0.98;0.70;;;11.80;99.90;;;;;;4989813;28;20088;-74
2024/03/17 06:03:36;;;;;;;1.38;1.02;;;11.80;1.00;;;;;;4976736;28;20061;-74
2024/03/17 06:06:03;;;;;;;1.52;0.85;;;11.90;26.20;;;;;;4982744;28;20444;-74
2024/03/17 06:08:29;;;;;;;1.13;0.85;;;11.90;99.90;;;;;;4983237;28;20054;-74
2024/03/17 06:10:58;;;;;;;1.38;0.90;;;11.90;99.90;;;;;;4972024;28;20061;-75
2024/03/17 06:13:24;;;;;;;0.60;0.60;;;11.90;99.90;;;;;;4959886;28;20046;-74
2024/03/17 06:15:50;;;;;;;0.70;0.70;;;11.80;99.90;;;;;;4986041;28;20058;-73
2024/03/17 06:18:17;;;;;;;0.60;0.60;;;11.80;99.90;;;;;;4969818;28;20277;-74
2024/03/17 06:20:44;;;;;;;0.68;0.60;;;11.90;99.90;;;;;;4985453;28;20100;-74
2024/03/17 06:23:19;;;;;;;0.73;0.73;;;11.90;99.90;;;;;;4975669;28;20458;-73
2024/03/17 06:25:47;;;;;;;1.10;0.93;;;11.90;99.90;;;;;;4974757;28;20516;-73
2024/03/17 06:28:17;;;;;;;0.50;0.50;;;11.90;99.90;;;;;;5001646;28;20100;-74
2024/03/17 06:30:53;;;;;;;0.77;0.75;;;11.90;99.90;;;;;;4982367;28;20057;-73
2024/03/17 06:33:19;;;;;;;1.52;0.93;;;11.90;99.90;;;;;;4965543;28;20113;-74
2024/03/17 06:35:49;;;;;;;1.30;0.65;;;11.90;99.90;;;;;;4994833;28;20956;-74
2024/03/17 06:38:15;;;;;;;1.15;0.82;;;11.90;99.90;;;;;;4985752;28;20396;-73
2024/03/17 06:40:41;;;;;;;1.55;0.98;;;11.90;99.90;;;;;;4985437;28;20057;-74
2024/03/17 06:43:10;;;;;;;1.10;0.85;;;12.00;99.90;;;;;;4973169;28;20046;-74
2024/03/17 06:45:36;;;;;;;1.13;0.93;;;12.00;99.90;;;;;;4973538;28;20061;-74
2024/03/17 06:48:02;;;;;;;1.00;0.90;;;12.00;99.90;;;;;;4966324;28;20206;-73
2024/03/17 06:50:28;;;;;;;1.23;1.00;;;12.00;99.90;;;;;;4975607;28;20050;-73
2024/03/17 06:52:54;;;;;;;2.40;1.23;;;12.00;36.20;;;;;;4973775;28;20054;-74
2024/03/17 06:55:24;;;;;;;1.65;1.20;;;12.00;71.60;;;;;;4988977;28;20057;-74
2024/03/17 06:57:51;;;;;;;3.03;1.20;;;12.00;1.00;;;;;;4961890;28;20446;-74
2024/03/17 07:00:17;;;;;;;1.77;1.00;;;12.00;1.00;;;;;;4995400;28;20065;-74
2024/03/17 07:02:43;;;;;;;1.60;1.20;;;12.10;99.90;;;;;;4981537;28;20054;-74
2024/03/17 07:05:16;;;;;;;2.05;1.30;;;12.10;1.00;;;;;;4954121;28;20058;-74
2024/03/17 07:07:42;;;;;;;1.58;1.10;;;12.10;1.00;;;;;;4964779;28;20597;-74
2024/03/17 07:10:08;;;;;;;1.50;1.10;;;12.10;1.00;;;;;;4952772;28;20710;-74
2024/03/17 07:12:34;;;;;;;1.52;1.20;;;12.10;99.90;;;;;;4987895;28;20062;-74
2024/03/17 07:15:00;;;;;;;2.63;1.50;;;12.20;99.90;;;;;;4981262;28;20065;-73
2024/03/17 07:17:26;;;;;;;2.40;1.23;;;12.20;99.90;;;;;;4981799;28;20145;-74
2024/03/17 07:19:52;;;;;;;1.33;0.90;;;12.20;99.90;;;;;;4998768;28;20060;-73
2024/03/17 07:22:18;;;;;;;1.15;1.05;;;12.30;57.50;;;;;;4980508;28;20181;-73
2024/03/17 07:24:45;;;;;;;1.13;0.93;;;12.30;1.00;;;;;;4981030;28;20054;-73
2024/03/17 07:27:13;;;;;;;1.20;0.60;;;12.30;1.00;;;;;;4982533;28;20406;-73
2024/03/17 07:29:40;;;;;;;0.85;0.70;;;12.40;1.00;;;;;;4964295;28;20071;-74
2024/03/17 07:32:06;;;;;;;1.10;0.80;;;12.40;99.90;;;;;;4965220;28;20064;-74
2024/03/17 07:34:32;;;;;;;1.15;0.90;;;12.40;99.90;;;;;;4982258;28;20383;-74
2024/03/17 07:37:03;;;;;;;1.23;0.77;;;12.40;99.90;;;;;;4979554;28;20058;-74
2024/03/17 07:39:32;;;;;;;1.40;0.80;;;12.40;99.90;;;;;;4979024;28;20222;-73
2024/03/17 07:41:59;;;;;;;0.75;0.70;;;12.40;99.90;;;;;;4989491;28;20065;-73
2024/03/17 07:44:26;;;;;;;0.80;0.68;;;12.50;99.90;;;;;;4972984;28;20065;-74
2024/03/17 07:46:54;;;;;;;1.08;0.60;;;12.50;99.90;;;;;;4961126;28;20054;-73
2024/03/17 07:49:21;;;;;;;0.68;0.57;;;12.60;99.90;;;;;;4958554;28;20112;-74
2024/03/17 07:51:47;;;;;;;1.13;0.70;;;12.60;90.40;;;;;;4965764;28;20976;-74
2024/03/17 07:54:13;;;;;;;1.10;0.60;;;12.60;1.00;;;;;;4987772;28;20053;-74
2024/03/17 07:56:39;;;;;;;1.33;0.80;;;12.60;1.00;;;;;;4978246;28;20057;-73
2024/03/17 07:59:11;;;;;;;0.80;0.70;;;12.60;1.00;;;;;;4980304;28;20115;-74
2024/03/17 08:01:38;;;;;;;1.13;0.77;;;12.60;1.00;;;;;;4997999;28;20061;-74
2024/03/17 08:04:04;;;;;;;1.30;1.00;;;12.70;1.00;;;;;;4998316;28;20072;-74
2024/03/17 08:06:30;;;;;;;2.88;0.88;;;12.70;99.90;;;;;;4981048;28;20049;-74
2024/03/17 08:08:56;;;;;;;0.88;0.63;;;12.70;1.00;;;;;;4963641;28;20067;-73
2024/03/17 08:11:24;;;;;;;1.33;0.80;;;12.70;1.00;;;;;;4981248;28;20057;-74
2024/03/17 08:13:50;;;;;;;1.35;0.80;;;12.70;1.00;;;;;;4994563;28;20053;-74
2024/03/17 08:16:17;;;;;;;0.68;0.60;;;12.70;1.00;;;;;;4964978;28;20052;-74
2024/03/17 08:18:42;;;;;;;1.85;0.77;;;12.70;1.00;;;;;;4982129;28;20069;-74
2024/03/17 08:21:09;;;;;;;1.25;0.40;;;12.80;1.80;;;;;;4965167;28;20471;-74
2024/03/17 08:23:46;;;;;;;0.93;0.75;;;12.80;1.00;;;;;;4988253;28;20057;-75
2024/03/17 08:26:13;;;;;;;0.57;0.50;;;12.90;7.20;;;;;;4967102;28;20057;-74
2024/03/17 08:28:38;;;;;;;0.50;0.50;;;12.90;1.00;;;;;;4970835;28;20050;-74
2024/03/17 08:31:05;;;;;;;0.60;0.40;;;12.90;1.00;;;;;;4981691;28;20119;-74
2024/03/17 08:33:33;;;;;;;0.50;0.50;;;12.90;1.00;;;;;;4981368;28;20523;-74
2024/03/17 08:36:08;;;;;;;0.65;0.50;;;12.90;99.90;;;;;;4964974;28;20060;-74
2024/03/17 08:38:35;;;;;;;0.90;0.70;;;12.90;99.90;;;;;;4964267;28;20271;-74
2024/03/17 08:41:08;;;;;;;0.65;0.65;;;12.80;99.90;;;;;;4981143;28;20428;-74
2024/03/17 08:43:35;;;;;;;0.50;0.40;;;12.80;99.90;;;;;;4985757;28;20092;-74
2024/03/17 08:46:03;;;;;;;0.52;0.50;;;12.80;99.90;;;;;;4972101;28;20069;-74
2024/03/17 08:48:31;;;;;;;0.60;0.60;;;12.90;99.90;;;;;;4965319;28;20050;-74
2024/03/17 08:50:57;;;;;;;0.55;0.55;;;12.90;99.90;;;;;;4981214;28;20057;-74
2024/03/17 08:53:24;;;;;;;1.00;0.50;;;12.90;99.90;;;;;;4980057;28;20058;-74
2024/03/17 08:55:50;;;;;;;1.55;0.82;;;12.90;99.90;;;;;;4948222;28;20065;-74
2024/03/17 08:58:16;;;;;;;0.63;0.60;;;12.90;99.90;;;;;;4964607;28;20046;-74
2024/03/17 09:00:42;;;;;;;0.47;0.47;;;12.90;99.90;;;;;;4980723;28;20487;-74
2024/03/17 09:03:11;;;;;;;0.82;0.63;;;12.80;99.90;;;;;;4976452;28;20430;-74
2024/03/17 09:05:38;;;;;;;0.50;0.50;;;12.80;1.00;;;;;;4965464;28;20054;-74
2024/03/17 09:08:04;;;;;;;0.50;0.47;;;12.90;93.60;;;;;;4961658;28;20768;-74
2024/03/17 09:10:30;;;;;;;1.35;0.60;;;12.90;1.00;;;;;;4996481;28;20053;-74
2024/03/17 09:12:56;;;;;;;0.60;0.60;;;12.90;43.80;;;;;;4980414;28;20704;-74
2024/03/17 09:15:22;;;;;;;0.40;0.40;;;13.00;30.90;;;;;;4970099;28;20058;-74
2024/03/17 09:17:48;;;;;;;0.60;0.50;;;12.90;1.00;;;;;;4977623;28;20844;-74
2024/03/17 09:20:14;;;;;;;0.60;0.60;;;13.00;42.20;;;;;;4962303;28;20061;-74
2024/03/17 09:22:43;;;;;;;1.02;0.98;;;13.00;80.80;;;;;;4963146;28;20089;-74
2024/03/17 09:25:09;;;;;;;0.40;0.40;;;13.00;99.90;;;;;;4979024;28;20061;-74
2024/03/17 09:27:38;;;;;;;0.55;0.32;;;13.00;99.90;;;;;;4979832;28;20552;-74
2024/03/17 09:30:11;;;;;;;0.50;0.47;;;13.10;52.60;;;;;;4965938;28;20045;-74
2024/03/17 09:32:37;;;;;;;0.68;0.43;;;13.10;99.90;;;;;;4996248;28;20540;-79
2024/03/17 09:35:06;;;;;;;0.65;0.50;;;13.10;99.90;;;;;;4970964;28;20054;-75
2024/03/17 09:37:32;;;;;;;0.50;0.50;;;13.10;99.90;;;;;;4995175;28;20058;-75
2024/03/17 09:40:03;;;;;;;0.40;0.40;;;13.10;99.90;;;;;;4996272;28;20786;-76
2024/03/17 09:42:29;;;;;;;0.43;0.40;;;13.10;99.90;;;;;;4981444;28;20076;-75
2024/03/17 09:44:56;;;;;;;0.30;0.30;;;13.10;1.00;;;;;;4951136;28;20497;-76
2024/03/17 09:47:23;;;;;;;0.35;0.30;;;13.10;99.90;;;;;;4961402;28;20113;-76
2024/03/17 09:49:49;;;;;;;0.52;0.40;;;13.20;1.00;;;;;;4997011;28;20425;-76
2024/03/17 09:52:25;;;;;;;0.40;0.40;;;13.20;99.90;;;;;;4963931;28;20062;-76
2024/03/17 09:55:18;;;;;;;0.50;0.50;;;13.30;99.90;;;;;;4963801;28;20088;-75
2024/03/17 09:57:44;;;;;;;0.52;0.50;;;13.30;6.30;;;;;;4982858;28;20054;-76
2024/03/17 10:00:14;;;;;;;0.20;0.20;;;13.30;1.00;;;;;;4988022;28;20053;-74
2024/03/17 10:02:46;;;;;;;0.40;0.40;;;13.30;99.90;;;;;;4995116;28;20046;-74
2024/03/17 10:05:22;;;;;;;0.50;0.50;;;13.30;99.90;;;;;;4980751;28;20084;-74
2024/03/17 10:07:49;;;;;;;0.30;0.30;;;13.40;99.90;;;;;;4981787;28;20395;-74
2024/03/17 10:10:18;;;;;;;0.40;0.40;;;13.50;99.90;;;;;;4960758;28;20115;-74
2024/03/17 10:12:48;;;;;;;0.55;0.45;;;13.60;1.00;;;;;;4976457;28;20059;-74
2024/03/17 10:15:14;;;;;;;0.68;0.50;;;13.60;99.90;;;;;;4944841;28;20889;-74
2024/03/17 10:17:40;;;;;;;0.40;0.40;;;13.60;99.90;;;;;;4963408;28;20054;-74
2024/03/17 10:20:20;;;;;;;1.42;0.30;;;13.60;88.70;;;;;;4977989;28;20496;-74
2024/03/17 10:23:03;;;;;;;0.40;0.40;;;13.60;99.90;;;;;;4963942;28;20126;-73
2024/03/17 10:25:30;;;;;;;0.40;0.40;;;13.80;99.90;;;;;;4980150;28;20548;-73
2024/03/17 10:27:56;;;;;;;0.43;0.40;;;13.90;99.90;;;;;;4981536;28;20677;-74
2024/03/17 10:30:24;;;;;;;1.10;0.60;;;14.00;99.90;;;;;;4966829;28;20100;-74
2024/03/17 10:33:04;;;;;;;0.55;0.50;;;14.10;33.60;;;;;;4980952;28;20402;-74
2024/03/17 10:35:34;;;;;;;1.02;0.52;;;14.20;1.00;;;;;;5000018;28;20054;-75
2024/03/17 10:38:01;;;;;;;0.50;0.40;;;14.20;1.00;;;;;;4982260;28;20409;-75
2024/03/17 10:40:29;;;;;;;0.30;0.30;;;14.30;1.00;;;;;;4997427;28;20072;-76
2024/03/17 10:42:55;;;;;;;0.40;0.40;;;14.30;1.00;;;;;;4999089;28;20509;-76
2024/03/17 10:45:21;;;;;;;0.43;0.43;;;14.40;1.00;;;;;;4999418;28;20045;-75
2024/03/17 10:47:49;;;;;;;0.40;0.40;;;14.50;1.00;;;;;;4966503;28;20659;-75
2024/03/17 10:50:23;;;;;;;0.30;0.30;;;14.60;1.00;;;;;;4999785;28;20061;-76
2024/03/17 10:52:50;;;;;;;0.40;0.40;;;14.80;99.90;;;;;;4960228;28;20053;-75
2024/03/17 10:55:23;;;;;;;0.68;0.60;;;14.90;99.90;;;;;;4965111;28;20061;-76
2024/03/17 10:57:51;;;;;;;0.63;0.50;;;15.20;99.90;;;;;;4982274;28;20065;-74
2024/03/17 11:00:18;;;;;;;0.30;0.30;;;15.30;99.90;;;;;;4978819;28;20050;-74
2024/03/17 11:02:45;;;;;;;0.40;0.40;;;15.50;99.90;;;;;;4966649;28;20058;-74
2024/03/17 11:05:24;;;;;;;0.40;0.40;;;15.50;99.90;;;;;;4999815;28;20057;-74
2024/03/17 11:07:52;;;;;;;0.40;0.40;;;15.60;99.90;;;;;;4964762;28;20057;-74
2024/03/17 11:10:26;;;;;;;0.30;0.30;;;15.60;99.90;;;;;;4947586;28;20411;-74
2024/03/17 11:12:59;;;;;;;0.35;0.32;;;15.70;99.90;;;;;;4978965;28;20540;-74
2024/03/17 11:15:25;;;;;;;0.20;0.20;;;15.70;99.90;;;;;;4947966;28;20081;-74
2024/03/17 11:17:54;;;;;;;0.22;0.22;;;15.60;99.90;;;;;;4979466;28;20050;-74
2024/03/17 11:20:23;;;;;;;0.30;0.30;;;15.50;99.90;;;;;;4963202;28;20057;-74
2024/03/17 11:22:54;;;;;;;0.32;0.30;;;15.60;99.90;;;;;;4995528;28;20050;-74
2024/03/17 11:25:26;;;;;;;0.30;0.30;;;15.50;99.90;;;;;;4946690;28;20418;-74
2024/03/17 11:27:58;;;;;;;0.27;0.23;;;15.60;99.90;;;;;;4995476;28;20057;-74
2024/03/17 11:30:57;;;;;;;0.40;0.40;;;15.70;99.90;;;;;;4979427;28;20045;-74
2024/03/17 11:33:35;;;;;;;0.30;0.30;;;15.70;99.90;;;;;;4997616;28;20669;-76
2024/03/17 11:36:28;;;;;;;0.30;0.30;;;15.80;99.90;;;;;;4998152;28;20445;-73
2024/03/17 11:39:06;;;;;;;0.30;0.30;;;16.00;99.90;;;;;;4986054;28;20058;-74
2024/03/17 11:41:36;;;;;;;0.20;0.20;;;16.10;99.90;;;;;;4974270;28;20065;-74
2024/03/17 11:44:21;;;;;;;0.30;0.30;;;16.20;99.90;;;;;;4981493;28;20054;-74
2024/03/17 11:47:06;;;;;;;0.10;0.10;;;16.10;99.90;;;;;;4990173;28;20046;-73
2024/03/17 11:49:38;;;;;;;0.35;0.35;;;16.00;99.90;;;;;;4973312;28;20104;-74
2024/03/17 11:52:08;;;;;;;0.30;0.30;;;16.10;99.90;;;;;;4988624;28;20053;-74
2024/03/17 11:54:35;;;;;;;0.30;0.30;;;16.00;99.90;;;;;;4988696;28;20054;-74
2024/03/17 11:57:17;;;;;;;0.15;0.15;;;16.00;99.90;;;;;;4971762;28;20127;-74
2024/03/17 11:59:45;;;;;;;0.20;0.20;;;16.00;99.90;;;;;;4964897;28;20065;-74
2024/03/17 12:02:28;;;;;;;0.30;0.30;;;15.80;99.90;;;;;;4961827;28;20074;-74
2024/03/17 12:04:57;;;;;;;0.20;0.20;;;15.60;99.90;;;;;;4990715;28;20054;-75
2024/03/17 12:07:23;;;;;;;0.35;0.35;;;15.50;99.90;;;;;;4955790;28;20050;-74
2024/03/17 12:09:53;;;;;;;0.30;0.30;;;15.50;99.90;;;;;;4995106;28;20405;-74
2024/03/17 12:12:24;;;;;;;0.25;0.25;;;15.50;99.90;;;;;;4996922;28;20149;-74
2024/03/17 12:14:51;;;;;;;0.25;0.25;;;15.40;99.90;;;;;;4950481;28;20054;-75
2024/03/17 12:17:24;;;;;;;0.30;0.30;;;15.40;99.90;;;;;;4997560;28;20058;-74
2024/03/17 12:19:50;;;;;;;;;;;15.40;99.90;;;;;;4980072;28;20054;-75
2024/03/17 12:22:24;;;;;;;0.30;0.30;;;15.30;99.90;;;;;;4974841;28;19925;-75
2024/03/17 12:24:54;;;;;;;0.30;0.30;;;15.30;99.90;;;;;;4991846;28;20065;-74
2024/03/17 12:27:24;;;;;;;0.30;0.30;;;15.20;99.90;;;;;;4975903;28;20061;-74
2024/03/17 12:29:51;;;;;;;0.30;0.30;;;15.30;99.90;;;;;;4973809;28;20137;-74
2024/03/17 12:32:21;;;;;;;0.30;0.30;;;15.30;99.90;;;;;;4969665;28;20054;-74
2024/03/17 12:34:54;;;;;;;0.40;0.40;;;15.40;99.90;;;;;;4978177;28;20054;-74
2024/03/17 12:37:21;;;;;;;0.30;0.30;;;15.50;99.90;;;;;;4979444;28;20172;-74
2024/03/17 12:39:47;;;;;;;0.50;0.50;;;15.70;99.90;;;;;;4979264;28;20053;-75
2024/03/17 12:42:26;;;;;;;0.20;0.20;;;15.90;99.90;;;;;;4997579;28;20122;-75
2024/03/17 12:44:56;;;;;;;0.45;0.40;;;15.90;99.90;;;;;;4994356;28;20759;-74
2024/03/17 12:47:26;;;;;;;0.38;0.38;;;15.90;99.90;;;;;;4996013;28;20058;-74
2024/03/17 12:49:56;;;;;;;0.38;0.38;;;15.90;99.90;;;;;;4996381;28;20072;-74
2024/03/17 12:52:23;;;;;;;0.30;0.30;;;15.90;99.90;;;;;;4996030;28;20053;-74
2024/03/17 13:01:07;;;;;;;0.30;0.30;;;16.30;99.90;;;;;;4996053;28;20508;-75